^^
Meteo Knjazevac Station Historical Data
Daily Summary for July 24, 2021 Units:  Both    English   Metric
Daily Weekly Monthly Yearly Custom
  High: Low: Average:
Temperature: 50.8 °F /  10.4 °C 37.9 °F /  3.3 °C 44.8 °F /  7.1 °C
Dew Point: 42.1 °F /  5.6 °C 37.7 °F /  3.2 °C 40.3 °F /  4.6 °C
Humidity: 99% 72% 85%
Wind Speed: 8mph /  12.9km/h - 3.5mph /  5.6km/h
Wind Gust: 20mph /  32.2km/h - -
Wind- - SSE
Pressure: 29.77 in /  1008 hPa 29.72 in /  1006.3 hPa -
Precipitation: 0.00 in /  0 mm    
Historical Graphs
 
 
Tabular Data for July 24, 2021
Time Temperature Dew Point Pressure Wind Wind Speed Wind Gust Humidity Rainfall Rate (Hourly) solar Conditions
00:00 37.9 °F /  3.3 °C 37.7 °F /  3.2 °C 29.73in /  1006.7hPa WSW 3mph /  4.8km/h 7mph /  11.3km/h 99% 0.00in /  0mm 0 W/m2
00:10 37.9 °F /  3.3 °C 37.7 °F /  3.2 °C 29.73in /  1006.7hPa SSW 2mph /  3.2km/h 6mph /  9.7km/h 99% 0.00in /  0mm 0 W/m2
00:20 37.9 °F /  3.3 °C 37.7 °F /  3.2 °C 29.73in /  1006.7hPa North 5mph /  8km/h 7mph /  11.3km/h 99% 0.00in /  0mm 0 W/m2
00:30 38.2 °F /  3.4 °C 37.9 °F /  3.3 °C 29.74in /  1007hPa NNE 7mph /  11.3km/h 10mph /  16.1km/h 99% 0.00in /  0mm 0 W/m2
00:40 39.6 °F /  4.2 °C 39.4 °F /  4.1 °C 29.73in /  1006.7hPa SSW 2mph /  3.2km/h 11mph /  17.7km/h 99% 0.00in /  0mm 0 W/m2
00:50 41.4 °F /  5.2 °C 41.2 °F /  5.1 °C 29.73in /  1006.7hPa SSE 3mph /  4.8km/h 12mph /  19.3km/h 99% 0.00in /  0mm 0 W/m2
01:00 41.9 °F /  5.5 °C 40.6 °F /  4.8 °C 29.73in /  1006.7hPa ESE 6mph /  9.7km/h 11mph /  17.7km/h 95% 0.00in /  0mm 0 W/m2
01:10 40.9 °F /  4.9 °C 39.6 °F /  4.2 °C 29.73in /  1006.7hPa NNE 6mph /  9.7km/h 8mph /  12.9km/h 95% 0.00in /  0mm 0 W/m2
01:20 41 °F /  5 °C 39.7 °F /  4.3 °C 29.73in /  1006.7hPa NNE 6mph /  9.7km/h 11mph /  17.7km/h 95% 0.00in /  0mm 0 W/m2
01:30 41.4 °F /  5.2 °C 40.3 °F /  4.6 °C 29.74in /  1007hPa NNE 5mph /  8km/h 13mph /  20.9km/h 96% 0.00in /  0mm 0 W/m2
01:40 41.8 °F /  5.4 °C 40.5 °F /  4.7 °C 29.73in /  1006.7hPa NNE 7mph /  11.3km/h 12mph /  19.3km/h 95% 0.00in /  0mm 0 W/m2
01:50 41.4 °F /  5.2 °C 40 °F /  4.4 °C 29.74in /  1007hPa NNE 3mph /  4.8km/h 9mph /  14.5km/h 95% 0.00in /  0mm 0 W/m2
02:00 41.4 °F /  5.2 °C 40.4 °F /  4.7 °C 29.74in /  1007hPa NNE 5mph /  8km/h 14mph /  22.5km/h 96% 0.00in /  0mm 0 W/m2
02:10 41.5 °F /  5.3 °C 40.5 °F /  4.7 °C 29.74in /  1007hPa NNE 3mph /  4.8km/h 9mph /  14.5km/h 96% 0.00in /  0mm 0 W/m2
02:20 41.7 °F /  5.4 °C 41.2 °F /  5.1 °C 29.74in /  1007hPa NNE 5mph /  8km/h 10mph /  16.1km/h 98% 0.00in /  0mm 0 W/m2
02:30 42.3 °F /  5.7 °C 41.3 °F /  5.2 °C 29.74in /  1007hPa NE 5mph /  8km/h 8mph /  12.9km/h 96% 0.00in /  0mm 0 W/m2
02:40 43.2 °F /  6.2 °C 41.6 °F /  5.3 °C 29.74in /  1007hPa NNE 3mph /  4.8km/h 8mph /  12.9km/h 94% 0.00in /  0mm 0 W/m2
02:50 43.8 °F /  6.6 °C 41.9 °F /  5.5 °C 29.73in /  1006.7hPa NE 2mph /  3.2km/h 7mph /  11.3km/h 93% 0.00in /  0mm 0 W/m2
03:00 44.6 °F /  7 °C 41.8 °F /  5.4 °C 29.73in /  1006.7hPa West 1mph /  1.6km/h 5mph /  8km/h 90% 0.00in /  0mm 0 W/m2
03:10 44.8 °F /  7.1 °C 41.7 °F /  5.4 °C 29.73in /  1006.7hPa Calm   5mph /  8km/h 89% 0.00in /  0mm 0 W/m2
03:20 44.4 °F /  6.9 °C 41.7 °F /  5.4 °C 29.73in /  1006.7hPa SW 1mph /  1.6km/h 8mph /  12.9km/h 90% 0.00in /  0mm 0 W/m2
03:30 45 °F /  7.2 °C 41.9 °F /  5.5 °C 29.73in /  1006.7hPa SW 5mph /  8km/h 10mph /  16.1km/h 89% 0.00in /  0mm 0 W/m2
03:40 45 °F /  7.2 °C 41.6 °F /  5.3 °C 29.73in /  1006.7hPa SSW 3mph /  4.8km/h 7mph /  11.3km/h 88% 0.00in /  0mm 0 W/m2
03:50 44.8 °F /  7.1 °C 41.4 °F /  5.2 °C 29.73in /  1006.7hPa SW 3mph /  4.8km/h 8mph /  12.9km/h 88% 0.00in /  0mm 0 W/m2
04:00 45.1 °F /  7.3 °C 40.9 °F /  4.9 °C 29.73in /  1006.7hPa SW 2mph /  3.2km/h 7mph /  11.3km/h 85% 0.00in /  0mm 0 W/m2
04:10 45 °F /  7.2 °C 40.7 °F /  4.8 °C 29.73in /  1006.7hPa SW 3mph /  4.8km/h 10mph /  16.1km/h 85% 0.00in /  0mm 0 W/m2
04:20 45.2 °F /  7.3 °C 40.4 °F /  4.7 °C 29.73in /  1006.7hPa SSW 6mph /  9.7km/h 12mph /  19.3km/h 83% 0.00in /  0mm 0 W/m2
04:30 45.9 °F /  7.7 °C 40.4 °F /  4.7 °C 29.72in /  1006.3hPa SSW 5mph /  8km/h 14mph /  22.5km/h 81% 0.00in /  0mm 0 W/m2
04:40 46 °F /  7.8 °C 40.2 °F /  4.6 °C 29.72in /  1006.3hPa South 2mph /  3.2km/h 8mph /  12.9km/h 80% 0.00in /  0mm 0 W/m2
04:50 46.2 °F /  7.9 °C 40.4 °F /  4.7 °C 29.72in /  1006.3hPa SW 3mph /  4.8km/h 9mph /  14.5km/h 80% 0.00in /  0mm 0 W/m2
05:00 46.6 °F /  8.1 °C 40.4 °F /  4.7 °C 29.72in /  1006.3hPa SW 3mph /  4.8km/h 11mph /  17.7km/h 79% 0.00in /  0mm 0 W/m2
05:10 46.4 °F /  8 °C 40.2 °F /  4.6 °C 29.72in /  1006.3hPa West 1mph /  1.6km/h 5mph /  8km/h 79% 0.00in /  0mm 0 W/m2
05:20 45.9 °F /  7.7 °C 39.7 °F /  4.3 °C 29.73in /  1006.7hPa North 2mph /  3.2km/h 6mph /  9.7km/h 79% 0.00in /  0mm 0 W/m2
05:30 46.1 °F /  7.8 °C 39.7 °F /  4.3 °C 29.73in /  1006.7hPa WSW 2mph /  3.2km/h 14mph /  22.5km/h 78% 0.00in /  0mm 0 W/m2
05:40 46 °F /  7.8 °C 39.6 °F /  4.2 °C 29.73in /  1006.7hPa NE 5mph /  8km/h 9mph /  14.5km/h 78% 0.00in /  0mm 0 W/m2
05:50 45.9 °F /  7.7 °C 39.4 °F /  4.1 °C 29.73in /  1006.7hPa ENE 2mph /  3.2km/h 10mph /  16.1km/h 78% 0.00in /  0mm 0 W/m2
06:00 46.4 °F /  8 °C 39.6 °F /  4.2 °C 29.74in /  1007hPa ENE 5mph /  8km/h 8mph /  12.9km/h 77% 0.00in /  0mm 0 W/m2
06:10 46.4 °F /  8 °C 39.6 °F /  4.2 °C 29.74in /  1007hPa ENE 3mph /  4.8km/h 8mph /  12.9km/h 77% 0.00in /  0mm 0 W/m2
06:20 46.3 °F /  7.9 °C 39.5 °F /  4.2 °C 29.74in /  1007hPa SSE 2mph /  3.2km/h 8mph /  12.9km/h 77% 0.00in /  0mm 0 W/m2
06:30 46 °F /  7.8 °C 39.6 °F /  4.2 °C 29.74in /  1007hPa North 1mph /  1.6km/h 5mph /  8km/h 78% 0.00in /  0mm 0 W/m2
06:40 46 °F /  7.8 °C 39.5 °F /  4.2 °C 29.74in /  1007hPa WNW 2mph /  3.2km/h 7mph /  11.3km/h 78% 0.00in /  0mm 0 W/m2
06:50 45.9 °F /  7.7 °C 39.5 °F /  4.2 °C 29.75in /  1007.3hPa NE 1mph /  1.6km/h 6mph /  9.7km/h 78% 0.00in /  0mm 0 W/m2
07:00 45.7 °F /  7.6 °C 39.2 °F /  4 °C 29.75in /  1007.3hPa NNE 2mph /  3.2km/h 8mph /  12.9km/h 78% 0.00in /  0mm 5 W/m2
07:10 45.5 °F /  7.5 °C 39.4 °F /  4.1 °C 29.75in /  1007.3hPa NNW 2mph /  3.2km/h 5mph /  8km/h 79% 0.00in /  0mm 6 W/m2
07:20 45.5 °F /  7.5 °C 39.4 °F /  4.1 °C 29.75in /  1007.3hPa SSE 3mph /  4.8km/h 5mph /  8km/h 79% 0.00in /  0mm 18 W/m2
07:30 45.7 °F /  7.6 °C 39.2 °F /  4 °C 29.76in /  1007.7hPa SE 5mph /  8km/h 8mph /  12.9km/h 78% 0.00in /  0mm 38 W/m2
07:40 46 °F /  7.8 °C 39.6 °F /  4.2 °C 29.76in /  1007.7hPa SE 3mph /  4.8km/h 9mph /  14.5km/h 78% 0.00in /  0mm 36 W/m2
07:50 46.2 °F /  7.9 °C 39.4 °F /  4.1 °C 29.77in /  1008hPa South 2mph /  3.2km/h 6mph /  9.7km/h 77% 0.00in /  0mm 34 W/m2
08:00 46 °F /  7.8 °C 39.6 °F /  4.2 °C 29.77in /  1008hPa SW 3mph /  4.8km/h 7mph /  11.3km/h 78% 0.00in /  0mm 98 W/m2
08:10 46.6 °F /  8.1 °C 39.8 °F /  4.3 °C 29.77in /  1008hPa SSW 2mph /  3.2km/h 9mph /  14.5km/h 77% 0.00in /  0mm 102 W/m2
08:20 47.1 °F /  8.4 °C 40.3 °F /  4.6 °C 29.76in /  1007.7hPa SSW 3mph /  4.8km/h 6mph /  9.7km/h 77% 0.00in /  0mm 103 W/m2
08:30 47.6 °F /  8.7 °C 40.7 °F /  4.8 °C 29.77in /  1008hPa SW 1mph /  1.6km/h 6mph /  9.7km/h 77% 0.00in /  0mm 162 W/m2
08:40 48.3 °F /  9.1 °C 40.7 °F /  4.8 °C 29.77in /  1008hPa SW 3mph /  4.8km/h 7mph /  11.3km/h 75% 0.00in /  0mm 183 W/m2
08:50 49.1 °F /  9.5 °C 41.5 °F /  5.3 °C 29.77in /  1008hPa SW 3mph /  4.8km/h 8mph /  12.9km/h 75% 0.00in /  0mm 203 W/m2
09:00 49.8 °F /  9.9 °C 41.5 °F /  5.3 °C 29.77in /  1008hPa SSW 6mph /  9.7km/h 13mph /  20.9km/h 73% 0.00in /  0mm 140 W/m2
09:10 50.2 °F /  10.1 °C 41.5 °F /  5.3 °C 29.77in /  1008hPa SSW 8mph /  12.9km/h 20mph /  32.2km/h 72% 0.00in /  0mm 179 W/m2
09:20 50.2 °F /  10.1 °C 41.5 °F /  5.3 °C 29.77in /  1008hPa SW 5mph /  8km/h 12mph /  19.3km/h 72% 0.00in /  0mm 112 W/m2
09:30 50 °F /  10 °C 41.3 °F /  5.2 °C 29.77in /  1008hPa SW 7mph /  11.3km/h 10mph /  16.1km/h 72% 0.00in /  0mm 280 W/m2
09:40 50.8 °F /  10.4 °C 42.1 °F /  5.6 °C 29.77in /  1008hPa SW 6mph /  9.7km/h 14mph /  22.5km/h 72% 0.00in /  0mm 150 W/m2
Knjazevac, Serbia
Compliments of Weather Underground - 2 mb